createdAt,value
2018-03-16T00:01:15.345Z,30.22
2018-03-16T00:03:46.220Z,30.60
2018-03-16T00:06:17.848Z,30.96
2018-03-16T00:08:48.836Z,27.73
2018-03-16T00:11:20.356Z,32.54
2018-03-16T00:13:51.094Z,31.62
2018-03-16T00:16:22.097Z,31.55
2018-03-16T00:18:53.283Z,31.33
2018-03-16T00:21:24.613Z,31.96
2018-03-16T00:23:56.348Z,31.90
2018-03-16T00:26:27.100Z,29.20
2018-03-16T00:28:59.361Z,33.70
2018-03-16T00:31:28.636Z,30.58
2018-03-16T00:33:57.809Z,30.02
2018-03-16T00:36:28.431Z,32.97
2018-03-16T00:38:59.073Z,29.83
2018-03-16T00:41:29.896Z,31.35
2018-03-16T00:44:00.749Z,31.50
2018-03-16T00:46:31.392Z,30.90
2018-03-16T00:49:02.064Z,31.55
2018-03-16T00:51:32.829Z,32.25
2018-03-16T00:54:03.807Z,30.08
2018-03-16T00:56:35.572Z,33.12
2018-03-16T00:59:05.049Z,29.77
2018-03-16T01:01:35.883Z,32.85
2018-03-16T01:04:11.708Z,33.18
2018-03-16T01:06:43.425Z,33.65
2018-03-16T01:09:12.604Z,29.94
2018-03-16T01:11:41.798Z,34.00
2018-03-16T01:14:11.064Z,34.22
2018-03-16T01:16:41.636Z,34.38
2018-03-16T01:19:12.615Z,33.68
2018-03-16T01:21:44.041Z,34.83
2018-03-16T01:24:14.785Z,32.72
2018-03-16T01:26:46.460Z,34.00
2018-03-16T01:29:16.908Z,35.05
2018-03-16T01:31:47.685Z,34.72
2018-03-16T01:34:18.372Z,32.70
2018-03-16T01:36:49.848Z,36.12
2018-03-16T01:39:19.869Z,34.97
2018-03-16T01:41:50.796Z,31.50
2018-03-16T01:44:22.252Z,34.42
2018-03-16T01:46:53.073Z,35.42
2018-03-16T01:49:23.920Z,33.17
2018-03-16T01:51:54.432Z,34.38
2018-03-16T01:54:26.207Z,33.40
2018-03-16T01:56:56.961Z,36.22
2018-03-16T01:59:27.652Z,34.22
2018-03-16T02:01:58.224Z,34.72
2018-03-16T02:04:27.295Z,34.13
2018-03-16T02:06:58.005Z,34.13
2018-03-16T02:09:28.757Z,34.90
2018-03-16T02:12:00.143Z,33.80
2018-03-16T02:14:31.233Z,32.20
2018-03-16T02:17:01.721Z,33.07
2018-03-16T02:19:32.727Z,33.17
2018-03-16T02:22:04.100Z,33.50
2018-03-16T02:24:35.169Z,35.88
2018-03-16T02:27:06.124Z,34.70
2018-03-16T02:29:36.608Z,32.05
2018-03-16T02:32:09.392Z,35.42
2018-03-16T02:34:39.220Z,35.08
2018-03-16T02:37:09.722Z,30.33
2018-03-16T02:39:39.459Z,33.15
2018-03-16T02:42:10.026Z,32.17
2018-03-16T02:44:40.635Z,32.90
2018-03-16T02:47:11.244Z,33.13
2018-03-16T02:49:41.820Z,35.30
2018-03-16T02:52:12.480Z,33.90
2018-03-16T02:54:44.035Z,34.16
2018-03-16T02:57:15.209Z,33.55
2018-03-16T02:59:45.993Z,36.00
2018-03-16T03:02:16.551Z,33.53
2018-03-16T03:04:49.393Z,36.45
2018-03-16T03:07:20.230Z,35.63
2018-03-16T03:09:56.568Z,34.41
2018-03-16T03:12:25.763Z,32.75
2018-03-16T03:14:57.580Z,36.14
2018-03-16T03:17:27.095Z,33.13
2018-03-16T03:19:56.268Z,35.63
2018-03-16T03:22:26.755Z,33.72
2018-03-16T03:24:57.353Z,36.53
2018-03-16T03:27:28.060Z,33.92
2018-03-16T03:29:58.847Z,35.17
2018-03-16T03:32:30.580Z,35.68
2018-03-16T03:35:03.572Z,34.57
2018-03-16T03:37:34.424Z,37.13
2018-03-16T03:40:03.773Z,36.90
2018-03-16T03:42:36.591Z,36.07
2018-03-16T03:45:05.780Z,34.90
2018-03-16T03:47:36.712Z,36.28
2018-03-16T03:50:06.210Z,34.76
2018-03-16T03:52:37.243Z,36.78
2018-03-16T03:55:08.048Z,33.05
2018-03-16T03:57:39.865Z,38.30
2018-03-16T04:00:09.076Z,39.47
2018-03-16T04:02:40.851Z,38.72
2018-03-16T04:05:11.103Z,37.87
2018-03-16T04:07:41.734Z,38.88
2018-03-16T04:10:16.577Z,36.88
2018-03-16T04:12:45.533Z,39.17
2018-03-16T04:15:15.451Z,37.08
2018-03-16T04:17:47.815Z,38.54
2018-03-16T04:20:17.397Z,38.72
2018-03-16T04:22:51.296Z,38.67
2018-03-16T04:25:20.767Z,40.47
2018-03-16T04:27:50.339Z,39.45
2018-03-16T04:30:21.251Z,39.40
2018-03-16T04:32:52.746Z,41.92
2018-03-16T04:35:24.313Z,42.70
2018-03-16T04:37:54.899Z,41.14
2018-03-16T04:40:25.517Z,39.88
2018-03-16T04:42:56.223Z,43.58
2018-03-16T04:45:27.061Z,41.65
2018-03-16T04:48:00.819Z,43.34
2018-03-16T04:50:31.253Z,40.42
2018-03-16T04:53:01.604Z,39.00
2018-03-16T04:55:32.300Z,42.83
2018-03-16T04:58:02.986Z,43.03
2018-03-16T05:00:34.802Z,40.88
2018-03-16T05:03:04.696Z,41.83
2018-03-16T05:05:36.811Z,41.04
2018-03-16T05:08:06.414Z,40.67
2018-03-16T05:10:37.782Z,43.45
2018-03-16T05:13:07.454Z,41.20
2018-03-16T05:15:39.115Z,41.14
2018-03-16T05:18:10.032Z,42.67
2018-03-16T05:20:40.992Z,42.45
2018-03-16T05:23:10.176Z,42.78
2018-03-16T05:25:40.871Z,40.92
2018-03-16T05:28:11.240Z,40.73
2018-03-16T05:30:42.362Z,42.10
2018-03-16T05:33:13.293Z,40.58
2018-03-16T05:35:44.332Z,38.65
2018-03-16T05:38:15.275Z,39.50
2018-03-16T05:40:46.983Z,40.48
2018-03-16T05:43:17.568Z,40.97
2018-03-16T05:45:48.321Z,42.15
2018-03-16T05:48:19.979Z,41.26
2018-03-16T05:50:50.848Z,40.33
2018-03-16T05:53:21.828Z,40.85
2018-03-16T05:55:53.396Z,38.82
2018-03-16T05:58:25.151Z,39.68
2018-03-16T06:00:55.549Z,40.36
2018-03-16T06:03:26.448Z,41.42
2018-03-16T06:05:56.440Z,39.75
2018-03-16T06:08:27.071Z,41.75
2018-03-16T06:10:57.894Z,38.85
2018-03-16T06:13:28.552Z,36.66
2018-03-16T06:15:59.208Z,40.14
2018-03-16T06:18:29.934Z,40.50
2018-03-16T06:21:00.845Z,39.28
2018-03-16T06:23:32.450Z,38.70
2018-03-16T06:26:03.420Z,37.45
2018-03-16T06:28:37.309Z,38.45
2018-03-16T06:31:16.957Z,38.54
2018-03-16T06:33:46.162Z,37.90
2018-03-16T06:36:15.368Z,36.17
2018-03-16T06:38:44.829Z,38.55
2018-03-16T06:41:14.022Z,33.50
2018-03-16T06:43:43.265Z,38.53
2018-03-16T06:46:12.505Z,37.47
2018-03-16T06:48:41.716Z,37.55
2018-03-16T06:51:12.780Z,38.52
2018-03-16T06:53:42.411Z,37.25
2018-03-16T06:56:13.158Z,36.22
2018-03-16T06:58:45.637Z,39.17
2018-03-16T07:01:15.324Z,34.38
2018-03-16T07:03:50.357Z,38.22
2018-03-16T07:06:19.641Z,35.92
2018-03-16T07:08:48.843Z,38.22
2018-03-16T07:11:18.434Z,35.58
2018-03-16T07:13:49.297Z,36.88
2018-03-16T07:16:20.063Z,36.30
2018-03-16T07:18:51.792Z,36.60
2018-03-16T07:21:22.358Z,36.73
2018-03-16T07:23:53.105Z,36.28
2018-03-16T07:26:23.420Z,37.16
2018-03-16T07:28:54.228Z,32.40
2018-03-16T07:31:25.966Z,34.44
2018-03-16T07:33:56.807Z,35.70
2018-03-16T07:36:27.285Z,34.60
2018-03-16T07:38:58.405Z,33.63
2018-03-16T07:41:29.121Z,35.30
2018-03-16T07:44:03.848Z,33.82
2018-03-16T07:46:33.212Z,35.15
2018-03-16T07:49:02.405Z,34.67
2018-03-16T07:51:33.149Z,37.47
2018-03-16T07:54:03.816Z,34.22
2018-03-16T07:56:34.890Z,35.17
2018-03-16T07:59:05.946Z,33.58
2018-03-16T08:01:36.402Z,35.02
2018-03-16T08:04:07.124Z,34.17
2018-03-16T08:06:37.828Z,34.13
2018-03-16T08:09:09.524Z,33.34
2018-03-16T08:11:40.280Z,32.92
2018-03-16T08:14:10.741Z,34.72
2018-03-16T08:16:41.396Z,32.75
2018-03-16T08:19:12.048Z,33.55
2018-03-16T08:21:42.872Z,33.70
2018-03-16T08:24:13.745Z,33.08
2018-03-16T08:26:45.162Z,33.58
2018-03-16T08:29:15.904Z,31.23
2018-03-16T08:31:47.526Z,34.66
2018-03-16T08:34:18.208Z,31.96
2018-03-16T08:36:48.928Z,31.87
2018-03-16T08:39:19.377Z,33.38
2018-03-16T08:41:50.113Z,33.50
2018-03-16T08:44:20.866Z,33.35
2018-03-16T08:46:51.867Z,34.80
2018-03-16T08:49:22.846Z,34.78
2018-03-16T08:51:54.444Z,32.48
2018-03-16T08:54:25.108Z,31.02
2018-03-16T08:56:55.741Z,34.84
2018-03-16T08:59:26.500Z,33.92
2018-03-16T09:01:57.254Z,34.42
2018-03-16T09:04:27.928Z,33.53
2018-03-16T09:06:58.925Z,33.47
2018-03-16T09:09:29.795Z,31.52
2018-03-16T09:12:01.227Z,34.10
2018-03-16T09:14:31.800Z,34.13
2018-03-16T09:17:02.449Z,33.85
2018-03-16T09:19:33.110Z,31.58
2018-03-16T09:22:03.893Z,34.05
2018-03-16T09:24:34.809Z,33.88
2018-03-16T09:27:06.233Z,31.74
2018-03-16T09:29:36.970Z,31.48
2018-03-16T09:32:08.439Z,30.73
2018-03-16T09:34:38.347Z,31.02
2018-03-16T09:37:09.065Z,31.35
2018-03-16T09:39:39.878Z,31.55
2018-03-16T09:42:10.850Z,29.87
2018-03-16T09:44:41.822Z,29.25
2018-03-16T09:47:12.857Z,29.23
2018-03-16T09:49:43.821Z,30.37
2018-03-16T09:52:14.851Z,31.60
2018-03-16T09:54:56.761Z,30.55
2018-03-16T09:57:26.289Z,32.13
2018-03-16T09:59:55.711Z,30.00
2018-03-16T10:02:25.105Z,33.33
2018-03-16T10:04:54.378Z,29.00
2018-03-16T10:07:23.669Z,28.05
2018-03-16T10:09:53.168Z,29.07
2018-03-16T10:12:22.447Z,28.02
2018-03-16T10:14:52.406Z,32.30
2018-03-16T10:17:23.109Z,29.80
2018-03-16T10:19:53.793Z,29.12
2018-03-16T10:22:25.250Z,29.96
2018-03-16T10:24:55.956Z,28.35
2018-03-16T10:27:26.917Z,27.90
2018-03-16T10:29:57.773Z,29.45
2018-03-16T10:32:28.861Z,28.40
2018-03-16T10:34:59.851Z,30.37
2018-03-16T10:37:31.006Z,31.50
2018-03-16T10:40:01.858Z,32.35
2018-03-16T10:42:32.862Z,28.17
2018-03-16T10:45:03.825Z,27.40
2018-03-16T10:47:34.412Z,27.60
2018-03-16T10:50:04.557Z,28.02
2018-03-16T10:52:36.182Z,31.62
2018-03-16T10:55:06.927Z,29.50
2018-03-16T10:57:37.437Z,30.50
2018-03-16T11:00:09.191Z,31.16
2018-03-16T11:02:45.204Z,30.40
2018-03-16T11:05:19.232Z,35.38
2018-03-16T11:07:58.980Z,30.53
2018-03-16T11:10:28.280Z,28.38
2018-03-16T11:12:57.678Z,27.02
2018-03-16T11:15:26.956Z,27.20
2018-03-16T11:17:56.190Z,29.48
2018-03-16T11:20:25.546Z,31.67
2018-03-16T11:22:54.875Z,28.40
2018-03-16T11:25:24.170Z,27.67
2018-03-16T11:27:53.475Z,30.23
2018-03-16T11:30:22.721Z,27.98
2018-03-16T11:32:52.417Z,25.60
2018-03-16T11:35:23.198Z,27.02
2018-03-16T11:37:53.886Z,26.42
2018-03-16T11:40:24.890Z,27.98
2018-03-16T11:42:55.812Z,25.70
2018-03-16T11:45:27.161Z,25.42
2018-03-16T11:47:57.582Z,24.80
2018-03-16T11:50:28.252Z,23.44
2018-03-16T11:52:58.902Z,26.12
2018-03-16T11:55:30.496Z,25.82
2018-03-16T11:58:01.141Z,25.67
2018-03-16T12:00:32.074Z,27.65
2018-03-16T12:03:02.841Z,24.90
2018-03-16T12:05:34.572Z,43.26
2018-03-16T12:08:05.106Z,45.13
2018-03-16T12:10:35.871Z,28.77
2018-03-16T12:13:06.784Z,27.30
2018-03-16T12:15:37.352Z,25.25
2018-03-16T12:18:08.880Z,23.42
2018-03-16T12:20:39.505Z,30.86
2018-03-16T12:23:10.256Z,29.52
2018-03-16T12:25:40.983Z,25.67
2018-03-16T12:28:12.964Z,22.96
2018-03-16T12:30:43.481Z,23.92
2018-03-16T12:33:14.388Z,23.10
2018-03-16T12:35:45.320Z,23.77
2018-03-16T12:38:16.022Z,24.98
2018-03-16T12:40:46.942Z,24.00
2018-03-16T12:43:18.425Z,23.96
2018-03-16T12:45:49.235Z,24.20
2018-03-16T12:48:20.017Z,25.37
2018-03-16T12:50:49.847Z,24.10
2018-03-16T12:53:20.423Z,24.00
2018-03-16T12:55:51.492Z,26.05
2018-03-16T12:58:22.382Z,23.67
2018-03-16T13:00:53.432Z,24.77
2018-03-16T13:03:24.395Z,26.10
2018-03-16T13:05:55.425Z,25.12
2018-03-16T13:08:26.360Z,23.42
2018-03-16T13:10:57.376Z,24.50
2018-03-16T13:13:28.448Z,26.92
2018-03-16T13:15:59.442Z,26.90
2018-03-16T13:18:30.432Z,27.02
2018-03-16T13:21:01.427Z,25.88
2018-03-16T13:23:34.206Z,24.65
2018-03-16T13:26:04.180Z,22.10
2018-03-16T13:28:34.976Z,22.60
2018-03-16T13:31:05.858Z,22.17
2018-03-16T13:33:36.864Z,21.75
2018-03-16T13:36:07.440Z,21.50
2018-03-16T13:38:38.097Z,21.37
2018-03-16T13:41:08.902Z,20.90
2018-03-16T13:43:39.792Z,20.08
2018-03-16T13:46:10.500Z,20.58
2018-03-16T13:48:42.391Z,19.58
2018-03-16T13:51:13.112Z,20.40
2018-03-16T13:53:43.811Z,18.75
2018-03-16T13:56:14.785Z,18.95
2018-03-16T13:58:45.737Z,21.37
2018-03-16T14:01:16.836Z,19.45
2018-03-16T14:03:47.825Z,21.60
2018-03-16T14:06:18.868Z,22.58
2018-03-16T14:08:49.763Z,22.67
2018-03-16T14:11:20.852Z,22.20
2018-03-16T14:13:51.753Z,21.92
2018-03-16T14:16:22.348Z,23.35
2018-03-16T14:18:53.089Z,23.10
2018-03-16T14:21:23.840Z,24.90
2018-03-16T14:23:56.631Z,32.50
2018-03-16T14:26:26.045Z,26.23
2018-03-16T14:28:56.546Z,23.18
2018-03-16T14:31:27.315Z,22.85
2018-03-16T14:33:58.051Z,24.35
2018-03-16T14:36:29.112Z,23.58
2018-03-16T14:38:59.903Z,20.58
2018-03-16T14:41:30.980Z,21.75
2018-03-16T14:44:02.027Z,20.62
2018-03-16T14:46:32.883Z,21.15
2018-03-16T14:49:03.774Z,21.42
2018-03-16T14:51:34.942Z,21.25
2018-03-16T14:54:05.786Z,20.75
2018-03-16T14:56:36.843Z,20.80
2018-03-16T14:59:09.732Z,20.92
2018-03-16T15:01:39.489Z,21.20
2018-03-16T15:04:10.203Z,22.80
2018-03-16T15:06:41.175Z,23.08
2018-03-16T15:09:11.912Z,23.77
2018-03-16T15:11:42.868Z,24.00
2018-03-16T15:14:13.908Z,26.50
2018-03-16T15:16:44.854Z,23.75
2018-03-16T15:19:15.530Z,23.30
2018-03-16T15:21:46.247Z,25.78
2018-03-16T15:24:17.118Z,22.25
2018-03-16T15:26:47.882Z,22.45
2018-03-16T15:29:18.932Z,24.05
2018-03-16T15:31:49.743Z,23.45
2018-03-16T15:34:20.423Z,24.27
2018-03-16T15:36:51.768Z,23.30
2018-03-16T15:39:22.344Z,23.33
2018-03-16T15:41:53.114Z,21.60
2018-03-16T15:44:23.984Z,22.35
2018-03-16T15:46:54.871Z,21.75
2018-03-16T15:49:25.451Z,22.33
2018-03-16T15:51:56.184Z,22.23
2018-03-16T15:54:26.952Z,21.87
2018-03-16T15:57:03.346Z,22.92
2018-03-16T15:59:32.575Z,23.40
2018-03-16T16:02:01.879Z,23.70
2018-03-16T16:04:31.117Z,25.30
2018-03-16T16:07:01.637Z,23.66
2018-03-16T16:09:32.304Z,23.30
2018-03-16T16:12:03.178Z,27.10
2018-03-16T16:14:34.905Z,27.52
2018-03-16T16:17:04.778Z,23.30
2018-03-16T16:19:35.328Z,20.42
2018-03-16T16:22:06.042Z,20.45
2018-03-16T16:24:36.862Z,20.83
2018-03-16T16:27:07.917Z,21.02
2018-03-16T16:29:38.618Z,25.12
2018-03-16T16:32:09.340Z,22.65
2018-03-16T16:34:41.992Z,21.97
2018-03-16T16:37:12.944Z,21.78
2018-03-16T16:39:43.582Z,21.96
2018-03-16T16:42:14.378Z,22.90
2018-03-16T16:44:45.031Z,23.90
2018-03-16T16:47:15.491Z,24.56
2018-03-16T16:49:46.169Z,22.37
2018-03-16T16:52:16.864Z,20.55
2018-03-16T16:54:47.799Z,20.62
2018-03-16T16:57:19.035Z,18.98
2018-03-16T16:59:49.797Z,18.00
2018-03-16T17:02:20.647Z,16.74
2018-03-16T17:04:51.301Z,20.50
2018-03-16T17:07:22.019Z,20.67
2018-03-16T17:09:50.956Z,21.85
2018-03-16T17:12:21.751Z,24.87
2018-03-16T17:14:51.913Z,23.13
2018-03-16T17:17:22.234Z,19.37
2018-03-16T17:19:52.375Z,18.40
2018-03-16T17:22:23.008Z,19.45
2018-03-16T17:24:54.461Z,19.55
2018-03-16T17:27:25.117Z,17.35
2018-03-16T17:29:55.901Z,17.23
2018-03-16T17:32:26.756Z,18.02
2018-03-16T17:34:57.740Z,17.90
2018-03-16T17:37:28.727Z,17.60
2018-03-16T17:39:59.735Z,19.70
2018-03-16T17:42:31.510Z,18.04
2018-03-16T17:45:02.397Z,18.45
2018-03-16T17:47:33.422Z,19.90
2018-03-16T17:50:04.824Z,19.58
2018-03-16T17:52:36.012Z,20.50
2018-03-16T17:55:06.857Z,20.35
2018-03-16T17:57:37.864Z,19.65
2018-03-16T18:00:08.748Z,20.23
2018-03-16T18:02:40.427Z,19.94
2018-03-16T18:05:11.115Z,17.08
2018-03-16T18:07:42.004Z,20.25
2018-03-16T18:10:12.791Z,18.98
2018-03-16T18:12:44.252Z,21.74
2018-03-16T18:15:14.985Z,24.00
2018-03-16T18:17:45.617Z,22.73
2018-03-16T18:20:16.822Z,20.37
2018-03-16T18:22:47.890Z,20.05
2018-03-16T18:25:18.993Z,22.00
2018-03-16T18:27:49.976Z,16.10
2018-03-16T18:30:20.920Z,15.63
2018-03-16T18:32:51.963Z,15.57
2018-03-16T18:35:22.956Z,16.08
2018-03-16T18:37:53.906Z,16.75
2018-03-16T18:40:24.894Z,14.40
2018-03-16T18:42:55.975Z,16.62
2018-03-16T18:45:26.828Z,16.17
2018-03-16T18:47:58.264Z,15.44
2018-03-16T18:50:28.952Z,20.23
2018-03-16T18:52:59.929Z,16.75
2018-03-16T18:55:30.800Z,13.30
2018-03-16T18:58:02.255Z,15.00
2018-03-16T19:00:32.922Z,16.20
2018-03-16T19:03:03.940Z,15.75
2018-03-16T19:05:34.271Z,13.27
2018-03-16T19:08:04.513Z,17.60
2018-03-16T19:10:34.686Z,14.07
2018-03-16T19:13:05.420Z,16.58
2018-03-16T19:15:36.984Z,20.54
2018-03-16T19:18:07.641Z,18.17
2018-03-16T19:20:39.299Z,17.70
2018-03-16T19:23:11.128Z,15.80
2018-03-16T19:25:41.959Z,16.20
2018-03-16T19:28:12.539Z,16.82
2018-03-16T19:30:43.712Z,19.37
2018-03-16T19:33:14.622Z,17.77
2018-03-16T19:35:43.997Z,15.88
2018-03-16T19:38:14.902Z,20.88
2018-03-16T19:40:45.994Z,20.88
2018-03-16T19:43:16.881Z,15.30
2018-03-16T19:45:48.725Z,11.88
2018-03-16T19:48:19.831Z,11.10
2018-03-16T19:50:49.913Z,9.90
2018-03-16T19:53:20.443Z,10.34
2018-03-16T19:55:50.829Z,10.08
2018-03-16T19:58:21.405Z,10.40
2018-03-16T20:00:52.384Z,10.55
2018-03-16T20:03:24.596Z,11.82
2018-03-16T20:05:54.376Z,11.25
2018-03-16T20:08:24.606Z,12.43
2018-03-16T20:10:55.269Z,13.16
2018-03-16T20:13:27.117Z,14.32
2018-03-16T20:15:57.725Z,14.46
2018-03-16T20:18:29.193Z,16.17
2018-03-16T20:20:58.762Z,19.37
2018-03-16T20:23:29.549Z,15.18
2018-03-16T20:26:01.785Z,16.80
2018-03-16T20:28:32.585Z,15.60
2018-03-16T20:31:02.731Z,14.82
2018-03-16T20:33:33.541Z,15.17
2018-03-16T20:36:04.248Z,15.40
2018-03-16T20:38:35.345Z,14.23
2018-03-16T20:41:07.805Z,14.58
2018-03-16T20:43:37.432Z,15.07
2018-03-16T20:46:08.485Z,13.88
2018-03-16T20:48:39.222Z,13.54
2018-03-16T20:51:09.111Z,17.08
2018-03-16T20:53:40.056Z,14.43
2018-03-16T20:56:11.800Z,13.90
2018-03-16T20:58:41.793Z,15.07
2018-03-16T21:01:11.462Z,15.23
2018-03-16T21:03:42.208Z,14.60
2018-03-16T21:06:12.911Z,16.45
2018-03-16T21:08:43.943Z,15.73
2018-03-16T21:11:14.448Z,16.10
2018-03-16T21:13:45.206Z,16.05
2018-03-16T21:16:16.003Z,18.58
2018-03-16T21:18:47.500Z,17.35
2018-03-16T21:21:18.469Z,16.94
2018-03-16T21:23:49.234Z,17.67
2018-03-16T21:26:20.024Z,15.73
2018-03-16T21:28:50.546Z,14.28
2018-03-16T21:31:21.069Z,14.54
2018-03-16T21:33:51.492Z,14.76
2018-03-16T21:36:22.173Z,14.02
2018-03-16T21:38:53.074Z,29.65
2018-03-16T21:41:24.056Z,17.55
2018-03-16T21:43:54.863Z,11.05
2018-03-16T21:46:26.740Z,12.10
2018-03-16T21:48:57.396Z,10.60
2018-03-16T21:51:28.056Z,11.30
2018-03-16T21:53:59.079Z,11.43
2018-03-16T21:56:29.428Z,11.72
2018-03-16T21:59:00.204Z,12.57
2018-03-16T22:01:30.896Z,12.95
2018-03-16T22:04:01.895Z,12.60
2018-03-16T22:06:32.853Z,12.23
2018-03-16T22:09:03.790Z,13.05
2018-03-16T22:11:34.883Z,11.93
2018-03-16T22:14:05.852Z,12.27
2018-03-16T22:16:36.851Z,11.98
2018-03-16T22:19:07.845Z,11.23
2018-03-16T22:21:38.835Z,11.18
2018-03-16T22:24:10.211Z,11.04
2018-03-16T22:26:40.877Z,9.13
2018-03-16T22:29:11.806Z,10.82
2018-03-16T22:31:42.499Z,13.00
2018-03-16T22:34:13.252Z,12.57
2018-03-16T22:36:43.993Z,12.18
2018-03-16T22:39:14.910Z,13.20
2018-03-16T22:41:45.872Z,11.68
2018-03-16T22:44:16.856Z,11.35
2018-03-16T22:46:47.819Z,10.85
2018-03-16T22:49:19.049Z,11.20
2018-03-16T22:51:49.808Z,10.57
2018-03-16T22:54:20.814Z,11.85
2018-03-16T22:56:51.355Z,10.82
2018-03-16T22:59:22.062Z,10.45
2018-03-16T23:01:52.821Z,10.23
2018-03-16T23:04:23.792Z,9.85
2018-03-16T23:06:55.140Z,10.10
2018-03-16T23:09:25.936Z,11.20
2018-03-16T23:11:56.699Z,10.40
2018-03-16T23:14:28.208Z,10.02
2018-03-16T23:16:59.122Z,10.50
2018-03-16T23:19:29.731Z,10.88
2018-03-16T23:22:00.810Z,11.20
2018-03-16T23:24:32.203Z,10.46
2018-03-16T23:27:02.843Z,9.95
2018-03-16T23:29:34.036Z,9.18
2018-03-16T23:32:04.686Z,10.07
2018-03-16T23:34:35.351Z,11.07
2018-03-16T23:37:06.049Z,9.80
2018-03-16T23:39:36.773Z,9.52
2018-03-16T23:42:07.815Z,9.50
2018-03-16T23:44:39.448Z,10.34
2018-03-16T23:47:10.113Z,11.05
2018-03-16T23:49:40.499Z,10.72
2018-03-16T23:52:11.111Z,10.44
2018-03-16T23:54:41.919Z,11.25
2018-03-16T23:57:12.812Z,10.90
2018-03-16T23:59:43.918Z,11.38
